Time;durP1;ratioP1;P1;durP2;ratioP2;P2;SDS_P1;SDS_P2;PMS_P1;PMS_P2;Temp;Humidity;BMP_temperature;BMP_pressure;BME280_temperature;BME280_humidity;BME280_pressure;Samples;Min_cycle;Max_cycle;Signal;HPM_P1;HPM_P2
2022/09/27 00:01:22;;;;;;;5.18;4.50;;;;;;;21.00;54.77;98639.34;5073907;28;20055;-79
2022/09/27 00:03:47;;;;;;;4.75;4.25;;;;;;;21.09;54.31;98647.66;5075104;28;20028;-79
2022/09/27 00:06:15;;;;;;;4.68;4.28;;;;;;;21.27;54.10;98655.22;5074779;28;20111;-79
2022/09/27 00:08:41;;;;;;;4.07;3.72;;;;;;;21.08;54.15;98624.59;5074710;28;20025;-79
2022/09/27 00:11:23;;;;;;;4.70;4.15;;;;;;;21.18;54.28;98632.63;5073424;28;20451;-79
2022/09/27 00:13:48;;;;;;;5.88;4.32;;;;;;;20.86;54.46;98579.22;5073487;28;20588;-79
2022/09/27 00:16:14;;;;;;;5.57;4.85;;;;;;;20.77;54.66;98589.66;5074793;28;20094;-79
2022/09/27 00:18:39;;;;;;;4.85;4.45;;;;;;;21.14;54.68;98604.72;5074705;28;20106;-79
2022/09/27 00:21:10;;;;;;;5.43;4.85;;;;;;;21.27;54.88;98608.75;5074805;28;20016;-79
2022/09/27 00:23:36;;;;;;;5.30;4.78;;;;;;;20.94;54.66;98559.91;5074712;28;20094;-78
2022/09/27 00:26:02;;;;;;;6.18;4.93;;;;;;;21.31;54.56;98612.53;5074755;28;20032;-79
2022/09/27 00:28:28;;;;;;;5.65;5.05;;;;;;;21.17;54.57;98580.03;5074831;28;20024;-79
2022/09/27 00:30:53;;;;;;;6.70;4.63;;;;;;;20.67;54.75;98494.97;5073342;28;20099;-79
2022/09/27 00:33:19;;;;;;;5.65;5.15;;;;;;;21.32;54.76;98608.75;5073565;28;20024;-78
2022/09/27 00:35:44;;;;;;;6.63;5.47;;;;;;;21.31;55.05;98599.91;5074529;28;20036;-79
2022/09/27 00:38:11;;;;;;;5.40;4.90;;;;;;;20.73;55.23;98505.44;5073336;28;20040;-79
2022/09/27 00:40:37;;;;;;;5.13;4.65;;;;;;;21.08;55.35;98576.28;5073284;28;20055;-79
2022/09/27 00:43:17;;;;;;;6.70;4.90;;;;;;;21.34;55.52;98622.72;5073524;28;20025;-79
2022/09/27 00:45:47;;;;;;;5.57;5.07;;;;;;;20.90;55.25;98545.44;5097914;28;20036;-78
2022/09/27 00:48:17;;;;;;;11.52;4.80;;;;;;;21.35;55.31;98584.06;5097393;28;20013;-78
2022/09/27 00:50:46;;;;;;;7.45;5.28;;;;;;;21.14;55.88;98567.13;5076472;28;20024;-79
2022/09/27 00:53:28;;;;;;;6.00;5.43;;;;;;;21.35;55.85;98584.06;5074062;28;20468;-79
2022/09/27 00:56:02;;;;;;;6.38;5.03;;;;;;;21.32;56.94;98577.34;5073962;28;20024;-79
2022/09/27 00:58:36;;;;;;;10.77;5.25;;;;;;;21.29;57.00;98590.50;5073791;28;20484;-79
2022/09/27 01:01:06;;;;;;;8.13;5.95;;;;;;;21.27;56.91;98569.28;5073703;28;20040;-79
2022/09/27 01:03:31;;;;;;;5.30;4.43;;;;;;;21.24;57.01;98573.31;5073888;28;20484;-79
2022/09/27 01:05:58;;;;;;;5.63;5.13;;;;;;;20.88;56.90;98518.88;5072501;28;20024;-79
2022/09/27 01:08:24;;;;;;;6.95;5.10;;;;;;;20.90;56.63;98522.06;5073843;28;20071;-79
2022/09/27 01:11:03;;;;;;;6.80;5.30;;;;;;;21.05;56.28;98523.94;5073607;28;20588;-78
2022/09/27 01:13:45;;;;;;;5.82;5.22;;;;;;;20.86;56.31;98490.69;5073551;28;20020;-79
2022/09/27 01:16:47;;;;;;;5.18;4.68;;;;;;;20.62;56.78;98472.44;5073638;28;20051;-78
2022/09/27 01:19:40;;;;;;;7.72;4.68;;;;;;;21.01;56.37;98527.44;5073488;28;20115;-79
2022/09/27 01:22:23;;;;;;;5.53;4.97;;;;;;;21.26;56.54;98551.56;5073258;28;20029;-78
2022/09/27 01:24:48;;;;;;;4.75;4.28;;;;;;;21.23;56.31;98546.75;5073290;28;20024;-78
2022/09/27 01:27:28;;;;;;;4.82;4.43;;;;;;;21.28;56.12;98545.94;5073466;28;20130;-79
2022/09/27 01:30:18;;;;;;;4.70;4.18;;;;;;;21.25;56.26;98544.59;5072099;28;20033;-78
2022/09/27 01:33:18;;;;;;;6.47;4.88;;;;;;;21.18;55.88;98538.69;5073376;28;20028;-78
2022/09/27 01:36:02;;;;;;;5.70;4.82;;;;;;;21.26;55.96;98540.84;5070653;28;20047;-78
2022/09/27 01:38:40;;;;;;;5.15;4.68;;;;;;;21.02;55.52;98516.44;5071711;28;20031;-78
2022/09/27 01:41:22;;;;;;;5.38;4.10;;;;;;;20.62;55.48;98434.09;5073668;28;20028;-79
2022/09/27 01:44:02;;;;;;;5.63;4.35;;;;;;;21.31;55.14;98531.97;5073448;28;20016;-79
2022/09/27 01:46:35;;;;;;;5.63;4.00;;;;;;;21.28;54.64;98521.78;5073263;28;20024;-79
2022/09/27 01:49:09;;;;;;;5.05;4.47;;;;;;;21.35;54.64;98539.22;5073039;28;20489;-79
2022/09/27 01:51:58;;;;;;;5.40;4.47;;;;;;;20.65;54.28;98403.25;5073049;28;20024;-78
2022/09/27 01:54:30;;;;;;;6.25;4.40;;;;;;;20.76;54.33;98428.97;5071594;28;20142;-78
2022/09/27 01:56:58;;;;;;;6.22;4.15;;;;;;;21.38;54.33;98516.38;5073019;28;20025;-78
2022/09/27 01:59:30;;;;;;;4.57;4.18;;;;;;;20.69;54.05;98423.09;5071612;28;20021;-78
2022/09/27 02:02:01;;;;;;;5.00;4.07;;;;;;;21.07;53.97;98470.00;5072583;28;20068;-79
2022/09/27 02:04:31;;;;;;;5.55;4.25;;;;;;;20.60;53.96;98393.34;5072255;28;20021;-79
2022/09/27 02:07:21;;;;;;;4.60;4.20;;;;;;;20.90;53.73;98425.47;5072764;28;20043;-79
2022/09/27 02:10:05;;;;;;;5.00;4.50;;;;;;;21.36;53.83;98495.16;5072758;28;20013;-79
2022/09/27 02:12:36;;;;;;;5.15;4.32;;;;;;;21.09;53.87;98449.84;5072589;28;20024;-79
2022/09/27 02:15:08;;;;;;;4.72;3.85;;;;;;;20.86;54.22;98447.75;5073041;28;20485;-79
2022/09/27 02:17:54;;;;;;;7.90;4.63;;;;;;;21.48;54.22;98501.03;5072826;28;20029;-78
2022/09/27 02:20:35;;;;;;;4.85;4.45;;;;;;;21.46;55.00;98505.06;5072584;28;20017;-79
2022/09/27 02:23:14;;;;;;;6.28;4.60;;;;;;;21.46;55.21;98500.50;5072384;28;20031;-79
2022/09/27 02:25:54;;;;;;;4.22;3.83;;;;;;;21.31;54.98;98480.97;5070922;28;20029;-78
2022/09/27 02:28:25;;;;;;;4.97;4.47;;;;;;;21.50;55.19;98515.00;5072277;28;20020;-78
2022/09/27 02:30:50;;;;;;;6.13;4.50;;;;;;;21.34;55.39;98500.00;5072317;28;20064;-78
2022/09/27 02:33:19;;;;;;;5.28;4.45;;;;;;;21.05;55.24;98430.00;5072400;28;20056;-79
2022/09/27 02:35:45;;;;;;;5.65;4.38;;;;;;;21.13;55.42;98437.50;5072421;28;20031;-79
2022/09/27 02:38:11;;;;;;;4.95;4.45;;;;;;;19.89;55.40;98241.41;5071881;28;20016;-78
2022/09/27 02:40:43;;;;;;;7.55;5.40;;;;;;;21.40;55.54;98474.75;5071869;28;20074;-80
2022/09/27 02:43:09;;;;;;;5.75;4.70;;;;;;;21.46;55.77;98507.75;5070616;28;20020;-79
2022/09/27 02:45:53;;;;;;;7.45;5.45;;;;;;;21.60;56.18;98499.94;5071926;28;20021;-79
2022/09/27 02:48:37;;;;;;;6.18;5.20;;;;;;;21.40;56.29;98476.63;5071815;28;20025;-79
2022/09/27 02:51:26;;;;;;;5.53;5.03;;;;;;;21.50;56.55;98504.25;5070223;28;20054;-79
2022/09/27 02:54:11;;;;;;;5.32;4.88;;;;;;;21.47;56.23;98498.63;5071599;28;20103;-79
2022/09/27 02:57:11;;;;;;;5.25;4.82;;;;;;;21.52;55.98;98487.84;5071982;28;20028;-78
2022/09/27 02:59:54;;;;;;;5.78;5.28;;;;;;;21.50;56.26;98481.97;5071516;28;20408;-80
2022/09/27 03:02:19;;;;;;;6.35;4.75;;;;;;;21.44;56.58;98486.53;5071470;28;20068;-78
2022/09/27 03:04:58;;;;;;;5.65;5.03;;;;;;;21.24;56.52;98435.59;5071569;28;20056;-79
2022/09/27 03:07:24;;;;;;;6.88;5.57;;;;;;;20.89;56.89;98378.25;5071712;28;20489;-79
2022/09/27 03:09:51;;;;;;;6.93;4.97;;;;;;;20.76;56.90;98381.50;5070145;28;20451;-78
2022/09/27 03:12:27;;;;;;;10.48;5.30;;;;;;;21.15;57.11;98413.88;5071795;28;20480;-79
2022/09/27 03:14:57;;;;;;;6.07;5.47;;;;;;;21.45;57.41;98466.66;5070107;28;20443;-79
2022/09/27 03:17:23;;;;;;;6.15;5.43;;;;;;;20.96;57.44;98407.50;5071758;28;20066;-79
2022/09/27 03:19:48;;;;;;;6.30;5.50;;;;;;;20.89;57.44;98369.41;5071401;28;20036;-79
2022/09/27 03:22:14;;;;;;;7.05;5.38;;;;;;;21.00;57.57;98419.28;5070233;28;20020;-78
2022/09/27 03:24:40;;;;;;;6.30;5.32;;;;;;;21.10;57.11;98419.25;5071631;28;20020;-78
2022/09/27 03:27:05;;;;;;;6.93;5.38;;;;;;;21.42;57.69;98469.91;5070208;28;20510;-78
2022/09/27 03:29:31;;;;;;;6.72;5.60;;;;;;;21.34;57.46;98446.31;5070422;28;20029;-79
2022/09/27 03:31:57;;;;;;;8.80;5.10;;;;;;;20.86;57.59;98394.91;5071547;28;20081;-79
2022/09/27 03:34:22;;;;;;;5.32;4.82;;;;;;;20.59;57.03;98327.38;5070304;28;20043;-79
2022/09/27 03:36:48;;;;;;;5.50;4.97;;;;;;;21.49;57.05;98470.41;5071437;28;20085;-79
2022/09/27 03:39:13;;;;;;;6.30;5.07;;;;;;;21.22;57.23;98416.25;5069918;28;20496;-79
2022/09/27 03:41:40;;;;;;;8.23;5.57;;;;;;;21.36;57.32;98433.41;5071280;28;20104;-78
2022/09/27 03:44:05;;;;;;;11.05;5.95;;;;;;;20.89;57.35;98370.22;5069866;28;20032;-78
2022/09/27 03:46:30;;;;;;;7.65;5.00;;;;;;;21.11;57.32;98399.38;5071565;28;20032;-79
2022/09/27 03:48:56;;;;;;;7.30;5.40;;;;;;;21.11;57.47;98409.31;5069873;28;20024;-79
2022/09/27 03:51:21;;;;;;;6.03;4.85;;;;;;;20.86;57.39;98370.75;5071298;28;20100;-79
2022/09/27 03:53:48;;;;;;;5.32;4.82;;;;;;;21.19;57.24;98435.59;5071099;28;20507;-79
2022/09/27 03:56:13;;;;;;;8.20;5.18;;;;;;;20.82;57.20;98372.38;5071117;28;20047;-79
2022/09/27 03:58:38;;;;;;;5.57;4.82;;;;;;;21.47;57.21;98469.09;5071471;28;20024;-79
2022/09/27 04:01:04;;;;;;;7.80;5.43;;;;;;;21.19;57.53;98449.03;5070951;28;20048;-79
2022/09/27 04:03:29;;;;;;;5.70;5.10;;;;;;;20.84;57.75;98364.88;5069783;28;20111;-79
2022/09/27 04:05:55;;;;;;;5.95;5.25;;;;;;;20.93;57.75;98403.47;5071319;28;20047;-79
2022/09/27 04:08:24;;;;;;;8.38;6.00;;;;;;;21.48;57.97;98471.50;5069669;28;20459;-79
2022/09/27 04:10:49;;;;;;;10.05;6.03;;;;;;;20.79;58.32;98374.78;5071108;28;20047;-79
2022/09/27 04:13:15;;;;;;;8.52;5.63;;;;;;;21.34;58.24;98457.03;5070743;28;20028;-78
2022/09/27 04:15:42;;;;;;;5.63;5.05;;;;;;;21.25;58.33;98435.34;5069708;28;20492;-79
2022/09/27 04:18:07;;;;;;;9.20;5.55;;;;;;;21.41;58.29;98443.31;5069626;28;20086;-79
2022/09/27 04:20:35;;;;;;;6.18;5.47;;;;;;;21.13;58.37;98401.78;5069555;28;20033;-79
2022/09/27 04:23:00;;;;;;;10.80;6.40;;;;;;;21.18;58.29;98416.00;5070935;28;20031;-79
2022/09/27 04:25:25;;;;;;;8.65;5.57;;;;;;;20.87;58.37;98355.47;5070763;28;20032;-80
2022/09/27 04:27:53;;;;;;;6.43;5.63;;;;;;;21.48;58.32;98422.34;5074228;28;20020;-79
2022/09/27 04:30:20;;;;;;;7.82;6.22;;;;;;;21.50;58.32;98429.03;5074414;28;20021;-79
2022/09/27 04:32:45;;;;;;;7.10;6.22;;;;;;;21.28;58.39;98395.59;5074142;28;20039;-79
2022/09/27 04:37:56;;;;;;;8.45;6.15;;;;;;;21.39;58.23;98410.56;5074535;28;20044;-79
2022/09/27 04:40:22;;;;;;;6.82;5.68;;;;;;;21.26;58.40;98390.50;5074196;28;20025;-79
2022/09/27 04:42:48;;;;;;;6.65;5.80;;;;;;;20.86;58.30;98349.28;5074174;28;20020;-79
2022/09/27 04:45:14;;;;;;;6.05;5.18;;;;;;;21.56;58.21;98438.72;5074186;28;20033;-79
2022/09/27 04:47:46;;;;;;;9.45;5.97;;;;;;;21.16;58.56;98382.47;5074034;28;20480;-79
2022/09/27 04:50:13;;;;;;;7.63;5.85;;;;;;;21.16;58.07;98372.53;5073919;28;20025;-79
2022/09/27 04:52:39;;;;;;;6.22;5.35;;;;;;;21.59;58.04;98458.84;5072560;28;20028;-79
2022/09/27 04:55:05;;;;;;;6.53;5.68;;;;;;;21.20;57.95;98392.38;5073921;28;20416;-79
2022/09/27 04:57:31;;;;;;;7.00;5.60;;;;;;;21.10;57.75;98356.72;5072676;28;20062;-79
2022/09/27 04:59:59;;;;;;;8.13;5.35;;;;;;;21.56;57.84;98427.16;5073643;28;20099;-79
2022/09/27 05:02:25;;;;;;;5.82;4.82;;;;;;;21.18;57.61;98356.16;5073729;28;20029;-79
2022/09/27 05:04:52;;;;;;;7.03;5.18;;;;;;;21.04;57.87;98349.75;5072429;28;20067;-79
2022/09/27 05:07:17;;;;;;;5.93;4.70;;;;;;;20.99;57.88;98326.44;5073746;28;20035;-80
2022/09/27 05:09:44;;;;;;;6.80;5.20;;;;;;;21.12;57.83;98333.09;5074008;28;20024;-79
2022/09/27 05:12:10;;;;;;;7.05;5.20;;;;;;;21.36;57.94;98368.97;5073837;28;20039;-78
2022/09/27 05:14:36;;;;;;;8.23;5.03;;;;;;;21.24;58.12;98361.25;5073998;28;20419;-78
2022/09/27 05:17:01;;;;;;;6.22;4.75;;;;;;;21.79;58.01;98441.81;5076865;28;20106;-80
2022/09/27 05:19:27;;;;;;;8.35;4.80;;;;;;;21.14;58.05;98361.25;5087672;28;20480;-77
2022/09/27 05:21:52;;;;;;;8.65;4.90;;;;;;;21.19;57.93;98353.19;5094638;28;20036;-77
2022/09/27 05:24:18;;;;;;;6.15;4.45;;;;;;;21.55;57.52;98410.25;5078304;28;20516;-78
2022/09/27 05:26:45;;;;;;;7.65;4.85;;;;;;;21.93;57.58;98456.25;5072782;28;20119;-79
2022/09/27 05:29:11;;;;;;;9.43;5.15;;;;;;;21.96;57.64;98460.25;5073988;28;20033;-79
2022/09/27 05:31:36;;;;;;;5.97;5.10;;;;;;;21.70;57.59;98414.72;5074124;28;20067;-79
2022/09/27 05:34:02;;;;;;;9.10;4.85;;;;;;;21.39;57.40;98365.72;5072285;28;20429;-79
2022/09/27 05:36:27;;;;;;;7.35;4.70;;;;;;;21.85;57.53;98436.13;5073549;28;20115;-79
2022/09/27 05:38:53;;;;;;;7.47;4.95;;;;;;;21.54;57.30;98375.59;5072473;28;20103;-78
2022/09/27 05:41:18;;;;;;;7.25;5.00;;;;;;;22.07;57.10;98448.38;5073420;28;20493;-79
2022/09/27 05:43:46;;;;;;;7.35;5.68;;;;;;;21.67;57.31;98393.00;5071988;28;20032;-78
2022/09/27 05:46:11;;;;;;;5.80;4.45;;;;;;;21.53;57.27;98345.22;5073436;28;20024;-79
2022/09/27 05:48:37;;;;;;;6.30;4.55;;;;;;;22.04;56.89;98446.25;5073444;28;20112;-79
2022/09/27 05:51:03;;;;;;;7.93;5.35;;;;;;;22.03;56.89;98426.63;5073039;28;20111;-79
2022/09/27 05:53:28;;;;;;;7.18;5.32;;;;;;;21.92;56.86;98413.53;5072770;28;20100;-80
2022/09/27 05:55:53;;;;;;;8.10;5.15;;;;;;;22.17;56.74;98435.69;5072443;28;20032;-78
2022/09/27 05:58:19;;;;;;;7.57;5.32;;;;;;;22.19;56.91;98427.31;5075529;28;20028;-79
2022/09/27 06:00:44;;;;;;;7.32;5.50;;;;;;;20.25;56.81;98134.16;5092293;28;20036;-79
2022/09/27 06:03:11;;;;;;;8.00;4.72;;;;;;;22.24;56.75;98439.94;5093004;28;20028;-79
2022/09/27 06:05:38;;;;;;;7.30;4.95;;;;;;;22.28;56.66;98441.78;5089730;28;20020;-79
2022/09/27 06:08:09;;;;;;;7.30;4.97;;;;;;;22.31;56.52;98443.94;5092627;28;20111;-78
2022/09/27 06:10:36;;;;;;;7.47;4.70;;;;;;;22.02;56.42;98395.44;5092684;28;20028;-79
2022/09/27 06:13:05;;;;;;;9.18;4.43;;;;;;;21.90;56.48;98381.56;5091726;28;20413;-79
2022/09/27 06:15:32;;;;;;;10.52;4.85;;;;;;;22.47;56.25;98439.22;5092618;28;20107;-78
2022/09/27 06:18:04;;;;;;;7.53;4.22;;;;;;;22.43;56.01;98430.13;5085879;28;20032;-78
2022/09/27 06:20:30;;;;;;;9.43;4.55;;;;;;;22.06;56.01;98368.84;5071890;28;20431;-79
2022/09/27 06:23:03;;;;;;;5.80;4.35;;;;;;;22.30;55.72;98390.44;5072944;28;20542;-79
2022/09/27 06:25:29;;;;;;;8.82;4.22;;;;;;;22.07;55.53;98343.56;5080408;28;20424;-78
2022/09/27 06:27:54;;;;;;;7.22;4.30;;;;;;;22.50;55.47;98392.94;5077415;28;20048;-78
2022/09/27 06:30:19;;;;;;;6.80;4.35;;;;;;;22.59;55.30;98376.97;5071868;28;20020;-78
2022/09/27 06:32:45;;;;;;;9.82;5.05;;;;;;;22.34;55.06;98324.25;5071636;28;20078;-79
2022/09/27 06:35:10;;;;;;;8.75;5.28;;;;;;;22.01;55.22;98275.56;5074783;28;20024;-79
2022/09/27 06:37:36;;;;;;;9.38;7.60;;;;;;;22.33;55.18;98328.03;5071355;28;20028;-79
2022/09/27 06:40:02;;;;;;;10.02;7.65;;;;;;;22.60;55.11;98360.56;5072431;28;20035;-79
2022/09/27 06:42:29;;;;;;;10.02;6.47;;;;;;;22.70;55.12;98367.72;5080313;28;20478;-79
2022/09/27 06:44:54;;;;;;;9.75;5.10;;;;;;;;;;5078670;28;20028;-79
2022/09/27 06:47:20;;;;;;;8.88;5.20;;;;;;;22.45;55.30;98325.75;5087815;28;20042;-79
2022/09/27 06:49:45;;;;;;;8.95;5.60;;;;;;;22.44;55.32;98340.28;5091437;28;20412;-79
2022/09/27 06:52:11;;;;;;;9.73;5.50;;;;;;;22.11;55.02;98280.88;5089152;28;20467;-79
2022/09/27 06:54:36;;;;;;;11.48;8.48;;;;;;;22.82;54.90;98382.41;5079916;28;20484;-79
2022/09/27 06:57:02;;;;;;;12.70;8.85;;;;;;;22.82;54.90;98390.47;5092013;28;20111;-79
2022/09/27 07:02:12;;;;;;;20.50;12.25;;;;;;;23.25;54.94;98457.88;5092179;28;20059;-79
2022/09/27 07:04:38;;;;;;;9.55;6.10;;;;;;;22.93;54.92;98388.47;5087554;28;20428;-79
2022/09/27 07:07:03;;;;;;;10.02;5.25;;;;;;;23.31;54.86;98435.19;5072002;28;20029;-79
2022/09/27 07:09:29;;;;;;;11.90;6.28;;;;;;;23.31;54.73;98435.19;5072108;28;20031;-77
2022/09/27 07:11:54;;;;;;;10.95;5.00;;;;;;;23.32;54.85;98426.00;5087262;28;20052;-80
2022/09/27 07:14:20;;;;;;;8.13;4.70;;;;;;;23.12;54.70;98420.88;5080822;28;20028;-80
2022/09/27 07:16:46;;;;;;;11.57;5.13;;;;;;;22.87;54.47;98367.28;5078308;28;20481;-79
2022/09/27 07:19:13;;;;;;;8.60;4.63;;;;;;;22.86;54.53;98368.38;5090781;28;20035;-80
2022/09/27 07:21:39;;;;;;;8.55;4.00;;;;;;;23.13;54.15;98403.63;5091912;28;20027;-79
2022/09/27 07:24:04;;;;;;;8.68;4.82;;;;;;;22.78;54.13;98348.25;5082385;28;20130;-79
2022/09/27 07:26:30;;;;;;;8.98;4.35;;;;;;;22.65;54.20;98349.75;5070881;28;20032;-78
2022/09/27 07:28:56;;;;;;;10.45;5.15;;;;;;;23.16;54.12;98394.97;5073833;28;20081;-78
2022/09/27 07:31:21;;;;;;;12.27;9.15;;;;;;;23.55;54.02;98429.00;5069756;28;20489;-79
2022/09/27 07:33:47;;;;;;;10.93;6.60;;;;;;;22.94;53.95;98344.31;5077606;28;20035;-79
2022/09/27 07:36:13;;;;;;;9.00;4.50;;;;;;;23.50;54.03;98419.03;5076091;28;20029;-78
2022/09/27 07:38:38;;;;;;;7.20;3.70;;;;;;;23.39;53.79;98396.84;5071586;28;20048;-79
2022/09/27 07:41:09;;;;;;;10.23;4.18;;;;;;;23.63;53.68;98439.13;5070537;28;20070;-78
2022/09/27 07:43:35;;;;;;;9.40;4.13;;;;;;;23.05;53.48;98334.25;5081222;28;20077;-79
2022/09/27 07:46:00;;;;;;;6.55;4.72;;;;;;;23.08;53.38;98325.59;5091015;28;20024;-79
2022/09/27 07:48:27;;;;;;;8.20;4.80;;;;;;;23.05;53.33;98326.19;5083705;28;20085;-78
2022/09/27 07:50:52;;;;;;;10.20;4.90;;;;;;;22.91;52.76;98301.84;5081129;28;20561;-78
2022/09/27 07:53:18;;;;;;;7.70;4.13;;;;;;;23.34;52.83;98315.28;5086380;28;20051;-78
2022/09/27 07:55:43;;;;;;;8.73;3.88;;;;;;;23.59;52.53;98368.03;5072704;28;20123;-78
2022/09/27 07:58:10;;;;;;;6.53;4.15;;;;;;;23.93;52.44;98403.66;5085300;28;20411;-77
2022/09/27 08:00:39;;;;;;;7.25;4.40;;;;;;;23.96;52.55;98408.47;5081114;28;20425;-78
2022/09/27 08:03:10;;;;;;;10.15;4.22;;;;;;;23.40;51.57;98347.25;5077850;28;20533;-79
2022/09/27 08:05:36;;;;;;;4.82;3.70;;;;;;;23.32;51.54;98309.41;5078518;28;20039;-78
2022/09/27 08:08:03;;;;;;;7.25;4.10;;;;;;;24.04;51.76;98405.13;5091788;28;20417;-81
2022/09/27 08:10:33;;;;;;;8.70;4.15;;;;;;;23.84;51.31;98374.97;5079454;28;20023;-77
2022/09/27 08:13:03;;;;;;;8.55;4.25;;;;;;;24.09;50.95;98423.91;5088558;28;20034;-80
2022/09/27 08:15:34;;;;;;;8.05;3.92;;;;;;;24.16;50.71;98409.25;5085883;28;20111;-78
2022/09/27 08:18:00;;;;;;;7.40;4.22;;;;;;;24.00;50.73;98395.22;5084571;28;20060;-79
2022/09/27 08:20:25;;;;;;;7.55;3.33;;;;;;;23.87;50.40;98363.59;5086204;28;20074;-78
2022/09/27 08:22:51;;;;;;;6.07;3.47;;;;;;;22.97;50.39;98214.53;5075988;28;20576;-79
2022/09/27 08:25:16;;;;;;;7.47;4.07;;;;;;;23.93;49.75;98374.00;5077733;28;20085;-78
2022/09/27 08:27:42;;;;;;;8.23;4.53;;;;;;;24.47;49.79;98426.56;5077175;28;20528;-78
2022/09/27 08:30:07;;;;;;;8.05;4.55;;;;;;;24.28;49.73;98372.66;5080787;28;20020;-79
2022/09/27 08:32:33;;;;;;;8.63;4.82;;;;;;;24.75;49.78;98424.75;5076385;28;20574;-77
2022/09/27 08:34:59;;;;;;;7.13;4.43;;;;;;;24.62;49.25;98382.34;5074970;28;20108;-77
2022/09/27 08:37:25;;;;;;;10.00;3.60;;;;;;;24.86;49.16;98409.97;5079171;28;20070;-78
2022/09/27 08:39:50;;;;;;;8.88;4.32;;;;;;;24.69;49.02;98378.16;5072812;28;20175;-80
2022/09/27 08:42:22;;;;;;;10.93;4.25;;;;;;;24.89;48.85;98401.28;5075167;28;20111;-77
2022/09/27 08:45:42;;;;;;;7.25;4.00;;;;;;;24.92;49.04;98399.88;5073772;28;20493;-79
2022/09/27 08:48:09;;;;;;;7.85;4.03;;;;;;;24.75;49.17;98375.38;5045074;28;20112;-78
2022/09/27 08:50:37;;;;;;;6.85;3.45;;;;;;;24.88;49.31;98407.78;5083775;28;20078;-79
2022/09/27 08:53:40;;;;;;;6.47;3.50;;;;;;;24.85;49.58;98402.16;5074932;28;20374;-79
2022/09/27 08:56:09;;;;;;;9.45;5.63;;;;;;;24.75;49.67;98391.56;5031482;28;20108;-79
2022/09/27 08:59:06;;;;;;;7.50;4.25;;;;;;;24.50;49.31;98344.22;5066429;28;20510;-77
2022/09/27 09:01:33;;;;;;;8.18;3.50;;;;;;;24.55;49.60;98354.94;5071719;28;20048;-79
2022/09/27 09:04:03;;;;;;;15.82;7.45;;;;;;;24.31;49.03;98315.41;5085968;28;20028;-79
2022/09/27 09:06:40;;;;;;;5.97;3.83;;;;;;;24.86;48.74;98376.78;5083347;28;20459;-79
2022/09/27 09:09:26;;;;;;;9.80;4.03;;;;;;;25.01;48.07;98371.91;5076313;28;20023;-79
2022/09/27 09:15:23;;;;;;;10.60;4.50;;;;;;;25.26;48.02;98357.06;5075715;28;20036;-78
2022/09/27 09:18:10;;;;;;;8.52;4.88;;;;;;;25.52;47.47;98360.03;5074740;28;20028;-79
2022/09/27 09:21:11;;;;;;;7.93;4.95;;;;;;;25.38;47.06;98302.53;5081940;28;20029;-79
2022/09/27 09:24:08;;;;;;;12.73;6.45;;;;;;;25.40;46.62;98283.31;5072950;28;20025;-77
2022/09/27 09:26:47;;;;;;;10.23;5.82;;;;;;;25.89;46.07;98355.44;5083633;28;20253;-79
2022/09/27 09:29:49;;;;;;;8.07;3.50;;;;;;;25.77;46.06;98347.06;5091197;28;20032;-79
2022/09/27 09:32:39;;;;;;;7.38;4.22;;;;;;;25.76;46.11;98346.28;5078866;28;20028;-78
2022/09/27 09:35:23;;;;;;;9.73;4.10;;;;;;;25.71;46.04;98322.06;5073003;28;20024;-78
2022/09/27 09:37:57;;;;;;;11.77;4.57;;;;;;;25.43;45.81;98299.72;5073296;28;20027;-78
2022/09/27 09:40:46;;;;;;;7.93;3.42;;;;;;;25.57;45.95;98319.38;5074239;28;20035;-79
2022/09/27 09:43:19;;;;;;;9.18;3.58;;;;;;;25.49;45.80;98273.38;5079923;28;20047;-79
2022/09/27 09:45:51;;;;;;;6.63;3.75;;;;;;;25.82;45.18;98284.75;5074263;28;20025;-79
2022/09/27 09:48:29;;;;;;;7.00;3.95;;;;;;;25.81;44.71;98231.78;5073182;28;20591;-77
2022/09/27 09:50:59;;;;;;;5.28;2.60;;;;;;;26.61;44.29;98336.34;5071642;28;20036;-79
2022/09/27 09:53:55;;;;;;;7.18;2.83;;;;;;;26.73;43.60;98317.59;5072296;28;20425;-78
2022/09/27 09:56:26;;;;;;;5.80;2.83;;;;;;;26.96;43.43;98318.31;5093766;28;20111;-79
2022/09/27 09:59:01;;;;;;;9.80;4.03;;;;;;;27.14;42.72;98316.47;5091862;28;20480;-78
2022/09/27 10:01:37;;;;;;;9.60;6.18;;;;;;;27.07;42.24;98270.88;5073489;28;20040;-79
2022/09/27 10:04:02;;;;;;;7.97;4.30;;;;;;;27.15;42.12;98278.22;5073050;28;20112;-78
2022/09/27 10:06:30;;;;;;;5.22;3.10;;;;;;;27.07;42.00;98251.13;5074442;28;20051;-79
2022/09/27 10:08:56;;;;;;;8.93;3.92;;;;;;;27.44;41.86;98272.16;5091677;28;20016;-78
2022/09/27 10:11:28;;;;;;;5.55;2.60;;;;;;;27.64;41.55;98297.09;5090142;28;20074;-77
2022/09/27 10:13:55;;;;;;;6.68;2.95;;;;;;;27.52;41.34;98270.59;5088264;28;20081;-79
2022/09/27 10:16:21;;;;;;;8.65;3.22;;;;;;;27.62;41.02;98262.16;5074149;28;20029;-77
2022/09/27 10:18:50;;;;;;;7.57;3.17;;;;;;;27.87;41.37;98284.94;5072711;28;20035;-80
2022/09/27 10:21:23;;;;;;;7.85;4.82;;;;;;;27.80;40.75;98287.34;5073711;28;20032;-79
2022/09/27 10:24:02;;;;;;;5.72;2.72;;;;;;;27.76;40.91;98262.78;5075524;28;20412;-78
2022/09/27 10:26:28;;;;;;;6.05;2.90;;;;;;;27.59;40.29;98234.88;5072125;28;20485;-79
2022/09/27 10:28:53;;;;;;;7.60;3.10;;;;;;;28.02;40.32;98261.94;5073183;28;20027;-78
2022/09/27 10:31:20;;;;;;;5.47;2.58;;;;;;;27.67;40.00;98194.22;5089733;28;20024;-79
2022/09/27 10:33:58;;;;;;;5.03;2.60;;;;;;;28.27;39.96;98257.59;5083571;28;20032;-79
2022/09/27 10:36:29;;;;;;;7.55;2.83;;;;;;;28.44;39.68;98242.03;5071871;28;20028;-78
2022/09/27 10:39:01;;;;;;;8.95;2.80;;;;;;;28.28;39.61;98185.91;5070507;28;20025;-79
2022/09/27 10:41:39;;;;;;;7.70;3.53;;;;;;;28.58;39.07;98200.25;5069918;28;20036;-79
2022/09/27 10:44:14;;;;;;;7.57;3.13;;;;;;;29.10;38.95;98255.09;5074441;28;20056;-78
2022/09/27 10:46:40;;;;;;;7.40;3.10;;;;;;;28.39;38.76;98130.09;5071696;28;20028;-78
2022/09/27 10:49:08;;;;;;;6.20;2.53;;;;;;;29.19;38.50;98255.84;5073529;28;20063;-77
2022/09/27 10:51:35;;;;;;;3.92;2.55;;;;;;;29.02;38.43;98207.06;5090469;28;20023;-78
2022/09/27 10:54:00;;;;;;;6.20;2.83;;;;;;;29.20;37.98;98194.91;5077199;28;20475;-78
2022/09/27 10:56:34;;;;;;;6.97;3.17;;;;;;;28.94;38.25;98165.19;5076139;28;20059;-78
2022/09/27 10:59:01;;;;;;;12.18;3.85;;;;;;;29.47;37.77;98249.88;5071624;28;20522;-79
2022/09/27 11:01:48;;;;;;;5.65;2.78;;;;;;;28.81;38.09;98187.97;5071477;28;20711;-77
2022/09/27 11:04:31;;;;;;;5.25;2.85;;;;;;;28.78;38.49;98251.09;5071306;28;20033;-78
2022/09/27 11:07:18;;;;;;;9.15;2.92;;;;;;;28.21;39.27;98218.91;5075261;28;20028;-79
2022/09/27 11:09:53;;;;;;;7.95;3.90;;;;;;;27.51;40.03;98161.34;5092195;28;20104;-79
2022/09/27 11:12:21;;;;;;;7.28;3.92;;;;;;;27.64;40.53;98229.31;5089875;28;20034;-79
2022/09/27 11:15:01;;;;;;;9.20;4.20;;;;;;;27.71;40.86;98262.94;5085239;28;20103;-78
2022/09/27 11:17:39;;;;;;;4.78;2.45;;;;;;;27.60;40.92;98260.88;5090576;28;20024;-79
2022/09/27 11:20:15;;;;;;;7.60;2.60;;;;;;;27.24;40.71;98191.50;5091862;28;20050;-79
2022/09/27 11:22:50;;;;;;;9.02;5.20;;;;;;;27.53;41.06;98248.59;5092329;28;20428;-78
2022/09/27 11:25:15;;;;;;;5.93;2.95;;;;;;;27.54;41.13;98231.19;5090836;28;20535;-79
2022/09/27 11:28:04;;;;;;;7.80;3.10;;;;;;;27.41;41.35;98215.88;5090489;28;20036;-78
2022/09/27 11:31:05;;;;;;;7.88;5.38;;;;;;;27.29;41.93;98221.16;5086518;28;20505;-78
2022/09/27 11:33:49;;;;;;;9.93;4.68;;;;;;;27.25;41.95;98211.28;5075756;28;20097;-78
2022/09/27 11:36:20;;;;;;;5.63;3.35;;;;;;;26.83;42.16;98125.03;5070774;28;20028;-80
2022/09/27 11:39:05;;;;;;;6.30;2.53;;;;;;;27.19;42.17;98195.16;5069668;28;20025;-79
2022/09/27 11:41:47;;;;;;;5.45;2.67;;;;;;;27.14;42.42;98191.81;5070802;28;20046;-78
2022/09/27 11:44:20;;;;;;;5.47;2.60;;;;;;;27.11;42.58;98192.47;5071529;28;20051;-79
2022/09/27 11:47:16;;;;;;;5.32;2.25;;;;;;;27.05;42.69;98189.13;5071258;28;20028;-79
2022/09/27 11:50:17;;;;;;;2.60;2.10;;;;;;;26.62;43.18;98139.50;5067929;28;20485;-79
2022/09/27 11:53:01;;;;;;;;;;;;;;;26.70;43.69;98179.31;5071961;28;20028;-79
2022/09/27 11:55:58;;;;;;;6.90;3.40;;;;;;;26.77;44.03;98196.72;5073022;28;19944;-79
2022/09/27 11:58:53;;;;;;;5.85;2.63;;;;;;;26.64;43.68;98154.31;5069011;28;20047;-77
2022/09/27 12:01:51;;;;;;;8.80;4.35;;;;;;;26.67;44.12;98188.88;5074963;28;20045;-79
2022/09/27 12:04:41;;;;;;;6.82;3.83;;;;;;;26.76;44.37;98210.56;5078716;28;20036;-80